createdAt,value
2023-04-12T00:01:13.836Z,2.28
2023-04-12T00:03:40.434Z,2.35
2023-04-12T00:06:07.408Z,2.90
2023-04-12T00:08:34.146Z,1.35
2023-04-12T00:11:02.184Z,2.05
2023-04-12T00:13:29.751Z,2.28
2023-04-12T00:15:56.097Z,1.65
2023-04-12T00:18:22.523Z,2.50
2023-04-12T00:20:49.010Z,2.67
2023-04-12T00:23:15.427Z,2.75
2023-04-12T00:25:41.722Z,5.82
2023-04-12T00:28:08.033Z,3.03
2023-04-12T00:30:34.431Z,1.95
2023-04-12T00:33:00.788Z,3.67
2023-04-12T00:35:27.178Z,3.03
2023-04-12T00:37:53.616Z,2.38
2023-04-12T00:40:20.024Z,2.90
2023-04-12T00:42:46.443Z,3.80
2023-04-12T00:45:14.368Z,2.15
2023-04-12T00:47:41.408Z,2.55
2023-04-12T00:50:08.451Z,1.90
2023-04-12T00:52:35.169Z,2.17
2023-04-12T00:55:04.263Z,2.22
2023-04-12T00:57:35.783Z,2.45
2023-04-12T01:00:03.446Z,2.08
2023-04-12T01:02:30.082Z,2.08
2023-04-12T01:04:57.381Z,3.30
2023-04-12T01:07:47.511Z,2.30
2023-04-12T01:10:22.608Z,2.67
2023-04-12T01:13:07.153Z,2.08
2023-04-12T01:15:39.600Z,2.28
2023-04-12T01:18:09.210Z,2.05
2023-04-12T01:20:40.440Z,2.28
2023-04-12T01:23:34.552Z,2.55
2023-04-12T01:26:17.095Z,2.25
2023-04-12T01:28:45.651Z,1.98
2023-04-12T01:31:13.532Z,2.03
2023-04-12T01:33:43.506Z,1.90
2023-04-12T01:36:21.241Z,2.15
2023-04-12T01:38:48.917Z,2.55
2023-04-12T01:41:15.927Z,2.13
2023-04-12T01:43:46.994Z,1.90
2023-04-12T01:46:15.871Z,2.35
2023-04-12T01:48:48.460Z,2.03
2023-04-12T01:51:25.253Z,2.40
2023-04-12T01:53:59.969Z,1.60
2023-04-12T01:56:31.591Z,1.63
2023-04-12T01:58:59.494Z,2.47
2023-04-12T02:01:26.093Z,2.85
2023-04-12T02:03:53.783Z,2.92
2023-04-12T02:06:22.990Z,4.10
2023-04-12T02:08:49.719Z,3.08
2023-04-12T02:11:16.023Z,1.77
2023-04-12T02:13:42.452Z,1.50
2023-04-12T02:16:08.992Z,1.23
2023-04-12T02:18:35.333Z,2.03
2023-04-12T02:21:01.816Z,2.60
2023-04-12T02:23:28.247Z,2.30
2023-04-12T02:25:54.549Z,3.00
2023-04-12T02:28:20.926Z,3.05
2023-04-12T02:30:47.256Z,2.20
2023-04-12T02:33:14.086Z,2.00
2023-04-12T02:35:40.436Z,2.05
2023-04-12T02:38:06.992Z,2.10
2023-04-12T02:40:43.087Z,1.73
2023-04-12T02:43:10.038Z,2.22
2023-04-12T02:45:36.417Z,2.15
2023-04-12T02:48:02.838Z,2.28
2023-04-12T02:50:29.345Z,1.75
2023-04-12T02:52:55.652Z,1.60
2023-04-12T02:55:22.315Z,2.03
2023-04-12T02:57:48.648Z,1.92
2023-04-12T03:00:15.317Z,2.10
2023-04-12T03:02:42.512Z,1.55
2023-04-12T03:05:09.543Z,1.75
2023-04-12T03:07:36.710Z,2.30
2023-04-12T03:10:03.422Z,1.58
2023-04-12T03:12:29.719Z,1.80
2023-04-12T03:14:56.423Z,1.98
2023-04-12T03:17:23.013Z,1.75
2023-04-12T03:19:49.412Z,1.95
2023-04-12T03:22:16.092Z,2.33
2023-04-12T03:24:42.448Z,2.10
2023-04-12T03:27:08.888Z,2.47
2023-04-12T03:29:35.280Z,2.33
2023-04-12T03:32:01.597Z,2.58
2023-04-12T03:34:28.488Z,1.50
2023-04-12T03:36:55.145Z,1.50
2023-04-12T03:39:21.874Z,1.38
2023-04-12T03:41:48.293Z,1.90
2023-04-12T03:44:14.743Z,1.90
2023-04-12T03:46:41.207Z,1.52
2023-04-12T03:49:07.689Z,1.27
2023-04-12T03:51:34.025Z,1.95
2023-04-12T03:54:00.425Z,2.10
2023-04-12T03:56:26.819Z,1.55
2023-04-12T03:58:53.294Z,1.92
2023-04-12T04:01:19.847Z,2.53
2023-04-12T04:03:46.683Z,2.00
2023-04-12T04:06:13.362Z,1.90
2023-04-12T04:08:39.703Z,1.80
2023-04-12T04:11:08.478Z,1.60
2023-04-12T04:13:35.566Z,1.95
2023-04-12T04:16:06.877Z,1.80
2023-04-12T04:18:33.323Z,1.95
2023-04-12T04:20:59.709Z,1.92
2023-04-12T04:23:26.350Z,1.55
2023-04-12T04:25:52.720Z,2.53
2023-04-12T04:28:19.200Z,2.08
2023-04-12T04:30:45.762Z,2.33
2023-04-12T04:33:12.878Z,1.85
2023-04-12T04:35:40.335Z,1.70
2023-04-12T04:38:06.754Z,2.95
2023-04-12T04:40:33.152Z,1.58
2023-04-12T04:42:59.648Z,1.83
2023-04-12T04:45:26.701Z,2.53
2023-04-12T04:47:53.918Z,1.90
2023-04-12T04:50:24.396Z,1.80
2023-04-12T04:52:51.231Z,1.98
2023-04-12T04:55:18.245Z,1.90
2023-04-12T04:57:44.814Z,2.00
2023-04-12T05:00:12.587Z,1.75
2023-04-12T05:02:39.210Z,2.10
2023-04-12T05:05:10.493Z,2.42
2023-04-12T05:07:36.814Z,1.40
2023-04-12T05:10:04.746Z,1.58
2023-04-12T05:12:31.180Z,2.10
2023-04-12T05:15:10.628Z,1.90
2023-04-12T05:17:37.972Z,1.35
2023-04-12T05:20:04.931Z,1.52
2023-04-12T05:22:31.534Z,0.82
2023-04-12T05:24:58.273Z,1.25
2023-04-12T05:27:24.644Z,0.93
2023-04-12T05:29:50.968Z,1.10
2023-04-12T05:32:17.721Z,1.65
2023-04-12T05:34:44.037Z,0.80
2023-04-12T05:37:10.792Z,0.73
2023-04-12T05:39:37.196Z,0.80
2023-04-12T05:42:04.137Z,0.98
2023-04-12T05:44:31.216Z,0.57
2023-04-12T05:46:57.651Z,1.20
2023-04-12T05:49:23.951Z,0.90
2023-04-12T05:51:50.488Z,0.40
2023-04-12T05:54:16.838Z,0.55
2023-04-12T05:56:43.516Z,1.00
2023-04-12T05:59:09.895Z,1.20
2023-04-12T06:01:36.617Z,0.60
2023-04-12T06:04:03.264Z,0.57
2023-04-12T06:06:29.926Z,0.77
2023-04-12T06:08:57.940Z,0.45
2023-04-12T06:11:24.424Z,0.65
2023-04-12T06:13:50.821Z,0.55
2023-04-12T06:16:17.242Z,1.20
2023-04-12T06:18:43.833Z,0.65
2023-04-12T06:21:10.345Z,1.13
2023-04-12T06:23:36.805Z,1.17
2023-04-12T06:26:03.387Z,0.70
2023-04-12T06:28:29.864Z,1.00
2023-04-12T06:30:56.330Z,0.88
2023-04-12T06:33:22.691Z,1.23
2023-04-12T06:35:50.641Z,0.70
2023-04-12T06:38:18.208Z,0.73
2023-04-12T06:40:44.888Z,0.43
2023-04-12T06:43:12.470Z,1.10
2023-04-12T06:45:38.773Z,0.88
2023-04-12T06:48:05.328Z,1.00
2023-04-12T06:50:31.817Z,1.02
2023-04-12T06:52:58.188Z,0.90
2023-04-12T06:55:25.694Z,1.23
2023-04-12T06:57:52.033Z,0.90
2023-04-12T07:00:19.146Z,1.17
2023-04-12T07:02:45.611Z,0.90
2023-04-12T07:05:14.242Z,1.00
2023-04-12T07:07:40.626Z,0.90
2023-04-12T07:10:07.731Z,1.30
2023-04-12T07:12:34.464Z,1.13
2023-04-12T07:15:00.841Z,1.00
2023-04-12T07:17:27.560Z,0.90
2023-04-12T07:19:54.850Z,0.73
2023-04-12T07:22:21.207Z,1.13
2023-04-12T07:24:49.326Z,0.88
2023-04-12T07:27:15.755Z,0.73
2023-04-12T07:29:42.297Z,1.00
2023-04-12T07:32:10.263Z,0.95
2023-04-12T07:34:37.486Z,0.90
2023-04-12T07:37:04.112Z,0.80
2023-04-12T07:39:30.574Z,0.70
2023-04-12T07:41:57.545Z,1.02
2023-04-12T07:44:23.892Z,0.63
2023-04-12T07:46:50.204Z,0.98
2023-04-12T07:49:16.883Z,1.13
2023-04-12T07:51:44.653Z,0.60
2023-04-12T07:54:11.340Z,0.70
2023-04-12T07:56:37.673Z,0.75
2023-04-12T07:59:04.091Z,0.85
2023-04-12T08:01:30.472Z,0.57
2023-04-12T08:03:57.480Z,0.75
2023-04-12T08:06:24.024Z,0.73
2023-04-12T08:08:50.442Z,0.50
2023-04-12T08:11:16.935Z,0.60
2023-04-12T08:13:43.286Z,0.50
2023-04-12T08:16:10.015Z,0.80
2023-04-12T08:18:36.692Z,0.80
2023-04-12T08:21:03.418Z,0.60
2023-04-12T08:23:29.884Z,0.50
2023-04-12T08:25:56.337Z,0.82
2023-04-12T08:28:22.868Z,0.80
2023-04-12T08:30:49.522Z,0.68
2023-04-12T08:33:15.860Z,0.65
2023-04-12T08:35:42.662Z,0.70
2023-04-12T08:38:09.003Z,0.60
2023-04-12T08:40:35.622Z,0.77
2023-04-12T08:43:02.829Z,0.70
2023-04-12T08:45:29.990Z,0.60
2023-04-12T08:47:57.301Z,0.90
2023-04-12T08:50:25.314Z,0.73
2023-04-12T08:52:52.278Z,0.60
2023-04-12T08:55:19.795Z,0.47
2023-04-12T08:57:47.807Z,0.93
2023-04-12T09:00:15.776Z,0.90
2023-04-12T09:02:42.632Z,0.68
2023-04-12T09:05:10.093Z,0.68
2023-04-12T09:07:36.893Z,0.50
2023-04-12T09:10:05.505Z,0.95
2023-04-12T09:12:31.994Z,0.88
2023-04-12T09:15:10.996Z,0.90
2023-04-12T09:17:37.386Z,0.60
2023-04-12T09:20:14.543Z,0.40
2023-04-12T09:22:40.912Z,0.60
2023-04-12T09:25:07.971Z,0.70
2023-04-12T09:27:48.120Z,0.50
2023-04-12T09:30:19.200Z,0.60
2023-04-12T09:32:46.199Z,0.73
2023-04-12T09:35:12.929Z,0.57
2023-04-12T09:37:39.417Z,0.43
2023-04-12T09:40:07.976Z,0.22
2023-04-12T09:42:36.425Z,0.30
2023-04-12T09:45:23.211Z,0.40
2023-04-12T09:47:50.399Z,0.50
2023-04-12T09:50:21.789Z,0.30
2023-04-12T09:52:48.386Z,0.60
2023-04-12T09:55:15.884Z,0.95
2023-04-12T09:57:43.717Z,0.50
2023-04-12T10:00:14.117Z,0.60
2023-04-12T10:02:45.024Z,0.70
2023-04-12T10:05:14.529Z,0.40
2023-04-12T10:07:41.662Z,0.63
2023-04-12T10:10:09.518Z,0.77
2023-04-12T10:12:36.931Z,0.50
2023-04-12T10:15:07.896Z,0.50
2023-04-12T10:17:35.504Z,0.55
2023-04-12T10:20:03.206Z,0.73
2023-04-12T10:22:29.556Z,0.40
2023-04-12T10:24:57.117Z,0.30
2023-04-12T10:27:27.248Z,0.50
2023-04-12T10:29:54.523Z,0.52
2023-04-12T10:32:22.537Z,0.30
2023-04-12T10:34:58.118Z,0.40
2023-04-12T10:38:00.768Z,0.52
2023-04-12T10:40:28.355Z,0.30
2023-04-12T10:43:25.095Z,0.50
2023-04-12T10:45:51.433Z,0.60
2023-04-12T10:48:30.439Z,0.40
2023-04-12T10:51:20.081Z,0.70
2023-04-12T10:53:49.772Z,0.40
2023-04-12T10:56:32.522Z,0.43
2023-04-12T10:59:04.469Z,0.40
2023-04-12T11:01:31.965Z,1.40
2023-04-12T11:04:17.243Z,0.52
2023-04-12T11:06:56.782Z,0.50
2023-04-12T11:09:33.992Z,0.50
2023-04-12T11:12:08.109Z,0.35
2023-04-12T11:14:47.326Z,0.90
2023-04-12T11:17:13.745Z,0.38
2023-04-12T11:19:43.048Z,0.88
2023-04-12T11:22:11.380Z,0.75
2023-04-12T11:24:43.694Z,0.50
2023-04-12T11:27:10.870Z,1.20
2023-04-12T11:29:37.243Z,0.65
2023-04-12T11:32:04.891Z,0.55
2023-04-12T11:34:36.090Z,0.52
2023-04-12T11:37:04.038Z,0.40
2023-04-12T11:39:32.026Z,0.40
2023-04-12T11:42:00.152Z,0.43
2023-04-12T11:44:26.887Z,0.73
2023-04-12T11:46:54.140Z,0.57
2023-04-12T11:49:21.470Z,0.40
2023-04-12T11:51:49.661Z,0.40
2023-04-12T11:54:16.175Z,0.40
2023-04-12T11:56:42.516Z,0.35
2023-04-12T11:59:09.651Z,0.68
2023-04-12T12:01:36.616Z,0.40
2023-04-12T12:04:03.954Z,0.50
2023-04-12T12:06:31.848Z,0.20
2023-04-12T12:08:58.804Z,0.30
2023-04-12T12:11:25.357Z,0.47
2023-04-12T12:13:56.058Z,0.20
2023-04-12T12:16:27.874Z,0.30
2023-04-12T12:18:54.849Z,0.20
2023-04-12T12:21:21.696Z,0.40
2023-04-12T12:23:49.396Z,0.28
2023-04-12T12:26:25.022Z,0.30
2023-04-12T12:28:53.109Z,0.30
2023-04-12T12:31:24.505Z,0.80
2023-04-12T12:33:59.038Z,0.57
2023-04-12T12:36:36.918Z,0.33
2023-04-12T12:39:07.914Z,0.45
2023-04-12T12:41:34.776Z,0.40
2023-04-12T12:44:01.214Z,0.30
2023-04-12T12:46:37.365Z,0.30
2023-04-12T12:49:14.196Z,0.30
2023-04-12T12:51:42.182Z,0.40
2023-04-12T12:54:08.608Z,0.35
2023-04-12T12:56:35.736Z,0.20
2023-04-12T12:59:03.162Z,0.22
2023-04-12T13:01:30.132Z,0.10
2023-04-12T13:03:56.654Z,0.20
2023-04-12T13:06:23.474Z,0.38
2023-04-12T13:08:49.980Z,0.20
2023-04-12T13:11:17.934Z,0.30
2023-04-12T13:13:44.804Z,0.20
2023-04-12T13:16:11.255Z,0.30
2023-04-12T13:18:37.810Z,0.35
2023-04-12T13:21:04.254Z,0.45
2023-04-12T13:23:30.576Z,0.30
2023-04-12T13:25:56.990Z,0.47
2023-04-12T13:28:23.421Z,0.40
2023-04-12T13:30:49.758Z,0.50
2023-04-12T13:33:19.990Z,0.13
2023-04-12T13:35:47.774Z,1.08
2023-04-12T13:38:14.213Z,0.77
2023-04-12T13:40:42.111Z,0.30
2023-04-12T13:43:08.461Z,0.40
2023-04-12T13:45:34.890Z,0.57
2023-04-12T13:48:02.021Z,0.20
2023-04-12T13:50:28.488Z,0.40
2023-04-12T13:52:54.826Z,0.40
2023-04-12T13:55:21.403Z,0.40
2023-04-12T13:57:47.765Z,0.43
2023-04-12T14:00:14.836Z,0.38
2023-04-12T14:02:41.255Z,0.30
2023-04-12T14:05:08.438Z,0.20
2023-04-12T14:07:35.317Z,0.40
2023-04-12T14:10:01.877Z,0.50
2023-04-12T14:12:28.189Z,0.10
2023-04-12T14:14:54.745Z,0.30
2023-04-12T14:17:21.321Z,0.30
2023-04-12T14:19:47.743Z,0.30
2023-04-12T14:22:14.308Z,0.20
2023-04-12T14:24:40.711Z,0.30
2023-04-12T14:27:07.149Z,0.30
2023-04-12T14:29:34.166Z,0.20
2023-04-12T14:32:00.613Z,0.13
2023-04-12T14:34:26.957Z,0.13
2023-04-12T14:36:53.991Z,0.15
2023-04-12T14:39:20.305Z,0.10
2023-04-12T14:41:46.725Z,0.28
2023-04-12T14:44:13.026Z,0.40
2023-04-12T14:46:39.744Z,0.30
2023-04-12T14:49:06.435Z,0.38
2023-04-12T14:51:32.736Z,0.38
2023-04-12T14:53:59.251Z,0.28
2023-04-12T14:56:29.798Z,0.30
2023-04-12T14:58:57.617Z,0.35
2023-04-12T15:01:25.565Z,0.50
2023-04-12T15:03:53.139Z,0.50
2023-04-12T15:06:23.511Z,0.65
2023-04-12T15:08:53.625Z,0.70
2023-04-12T15:11:20.656Z,1.23
2023-04-12T15:13:46.956Z,0.30
2023-04-12T15:16:13.320Z,0.77
2023-04-12T15:18:39.932Z,0.47
2023-04-12T15:21:11.136Z,0.85
2023-04-12T15:23:38.839Z,0.80
2023-04-12T15:26:05.742Z,0.30
2023-04-12T15:28:33.224Z,0.80
2023-04-12T15:30:59.536Z,0.63
2023-04-12T15:33:25.971Z,0.52
2023-04-12T15:35:53.592Z,0.50
2023-04-12T15:38:23.393Z,0.52
2023-04-12T15:40:55.349Z,0.93
2023-04-12T15:43:22.728Z,0.47
2023-04-12T15:45:49.585Z,0.47
2023-04-12T15:48:16.187Z,0.50
2023-04-12T15:50:42.591Z,0.35
2023-04-12T15:53:08.903Z,0.47
2023-04-12T15:55:35.448Z,0.28
2023-04-12T15:58:01.921Z,0.20
2023-04-12T16:00:28.600Z,0.40
2023-04-12T16:02:55.223Z,0.22
2023-04-12T16:05:21.997Z,0.30
2023-04-12T16:07:48.337Z,0.30
2023-04-12T16:10:14.664Z,0.30
2023-04-12T16:12:41.000Z,0.45
2023-04-12T16:15:07.815Z,0.63
2023-04-12T16:17:34.171Z,0.68
2023-04-12T16:20:00.774Z,0.50
2023-04-12T16:22:27.159Z,0.50
2023-04-12T16:24:53.520Z,0.30
2023-04-12T16:27:21.710Z,0.20
2023-04-12T16:29:49.870Z,0.30
2023-04-12T16:32:16.249Z,0.50
2023-04-12T16:34:42.604Z,1.23
2023-04-12T16:37:09.182Z,0.52
2023-04-12T16:39:35.567Z,0.40
2023-04-12T16:42:01.913Z,0.45
2023-04-12T16:44:28.468Z,0.82
2023-04-12T16:46:54.928Z,0.70
2023-04-12T16:49:21.333Z,1.00
2023-04-12T16:51:49.527Z,0.52
2023-04-12T16:54:15.961Z,0.57
2023-04-12T16:56:42.363Z,0.63
2023-04-12T16:59:08.786Z,0.43
2023-04-12T17:01:35.370Z,0.35
2023-04-12T17:04:02.483Z,1.38
2023-04-12T17:06:29.338Z,0.45
2023-04-12T17:08:56.252Z,0.35
2023-04-12T17:11:22.824Z,0.40
2023-04-12T17:13:49.236Z,0.73
2023-04-12T17:16:15.627Z,0.20
2023-04-12T17:18:42.127Z,0.80
2023-04-12T17:21:08.632Z,0.10
2023-04-12T17:23:35.586Z,0.10
2023-04-12T17:26:02.963Z,2.13
2023-04-12T17:28:29.770Z,0.10
2023-04-12T17:30:56.347Z,0.15
2023-04-12T17:33:22.764Z,0.20
2023-04-12T17:35:49.129Z,0.40
2023-04-12T17:38:15.509Z,0.47
2023-04-12T17:40:41.839Z,9.82
2023-04-12T17:43:08.228Z,8.15
2023-04-12T17:45:34.637Z,1.08
2023-04-12T17:48:01.077Z,0.47
2023-04-12T17:50:27.858Z,2.20
2023-04-12T17:52:54.236Z,0.45
2023-04-12T17:55:20.684Z,2.35
2023-04-12T17:57:47.043Z,0.40
2023-04-12T18:00:14.054Z,0.38
2023-04-12T18:02:40.785Z,0.20
2023-04-12T18:05:07.614Z,0.13
2023-04-12T18:07:34.083Z,0.13
2023-04-12T18:10:00.452Z,0.45
2023-04-12T18:12:26.812Z,0.50
2023-04-12T18:14:53.317Z,0.38
2023-04-12T18:17:19.828Z,0.70
2023-04-12T18:19:46.204Z,0.70
2023-04-12T18:22:12.650Z,0.90
2023-04-12T18:24:39.018Z,0.80
2023-04-12T18:27:10.588Z,0.60
2023-04-12T18:29:37.178Z,0.38
2023-04-12T18:32:03.528Z,2.15
2023-04-12T18:34:30.282Z,1.30
2023-04-12T18:36:56.646Z,1.20
2023-04-12T18:39:23.149Z,1.80
2023-04-12T18:41:49.573Z,0.88
2023-04-12T18:44:15.932Z,2.00
2023-04-12T18:46:42.318Z,1.10
2023-04-12T18:49:08.748Z,0.80
2023-04-12T18:51:35.341Z,1.23
2023-04-12T18:54:01.922Z,1.10
2023-04-12T18:56:28.339Z,1.33
2023-04-12T18:58:56.451Z,1.38
2023-04-12T19:01:24.282Z,2.47
2023-04-12T19:03:50.875Z,2.08
2023-04-12T19:06:17.456Z,2.15
2023-04-12T19:08:43.905Z,2.78
2023-04-12T19:11:10.271Z,2.50
2023-04-12T19:13:36.599Z,1.95
2023-04-12T19:16:03.122Z,1.88
2023-04-12T19:18:29.478Z,2.13
2023-04-12T19:20:56.417Z,2.00
2023-04-12T19:23:23.047Z,2.33
2023-04-12T19:25:49.347Z,1.70
2023-04-12T19:28:15.711Z,1.70
2023-04-12T19:30:42.080Z,1.60
2023-04-12T19:33:08.547Z,2.15
2023-04-12T19:35:34.919Z,1.10
2023-04-12T19:38:02.275Z,0.93
2023-04-12T19:40:30.943Z,1.05
2023-04-12T19:42:57.521Z,1.23
2023-04-12T19:45:24.220Z,1.58
2023-04-12T19:47:50.692Z,0.50
2023-04-12T19:50:17.155Z,0.50
2023-04-12T19:52:44.191Z,0.20
2023-04-12T19:55:11.145Z,0.10
2023-04-12T19:57:38.477Z,0.20
2023-04-12T20:00:09.632Z,0.00
2023-04-12T20:02:36.195Z,0.32
2023-04-12T20:05:04.133Z,0.25
2023-04-12T20:07:30.483Z,0.15
2023-04-12T20:09:56.824Z,0.00
2023-04-12T20:12:23.179Z,0.10
2023-04-12T20:14:49.560Z,0.13
2023-04-12T20:17:15.910Z,0.10
2023-04-12T20:19:42.245Z,0.20
2023-04-12T20:22:08.624Z,0.30
2023-04-12T20:24:34.996Z,0.40
2023-04-12T20:27:02.112Z,0.45
2023-04-12T20:29:32.567Z,0.50
2023-04-12T20:31:59.043Z,0.40
2023-04-12T20:34:25.373Z,0.30
2023-04-12T20:36:52.010Z,0.20
2023-04-12T20:39:18.422Z,1.10
2023-04-12T20:41:44.952Z,2.15
2023-04-12T20:44:11.255Z,0.40
2023-04-12T20:46:38.831Z,0.77
2023-04-12T20:49:05.313Z,1.05
2023-04-12T20:51:31.748Z,0.75
2023-04-12T20:53:58.447Z,0.50
2023-04-12T20:56:25.699Z,0.52
2023-04-12T20:58:52.250Z,1.10
2023-04-12T21:01:18.700Z,2.67
2023-04-12T21:03:45.255Z,4.45
2023-04-12T21:06:11.736Z,3.10
2023-04-12T21:08:38.383Z,5.45
2023-04-12T21:11:04.937Z,3.88
2023-04-12T21:13:31.383Z,3.53
2023-04-12T21:15:57.772Z,4.43
2023-04-12T21:18:24.102Z,2.55
2023-04-12T21:20:50.599Z,2.90
2023-04-12T21:23:18.081Z,3.33
2023-04-12T21:25:47.673Z,1.27
2023-04-12T21:28:15.290Z,0.70
2023-04-12T21:30:42.235Z,0.57
2023-04-12T21:33:08.671Z,0.20
2023-04-12T21:35:35.274Z,0.63
2023-04-12T21:38:02.576Z,0.60
2023-04-12T21:40:29.094Z,1.17
2023-04-12T21:42:55.453Z,0.50
2023-04-12T21:45:21.995Z,0.98
2023-04-12T21:47:48.553Z,1.30
2023-04-12T21:50:14.914Z,1.55
2023-04-12T21:52:41.338Z,0.68
2023-04-12T21:55:08.000Z,0.70
2023-04-12T21:57:35.290Z,0.50
2023-04-12T22:00:02.558Z,1.10
2023-04-12T22:02:29.200Z,1.73
2023-04-12T22:04:55.822Z,1.17
2023-04-12T22:07:22.492Z,2.08
2023-04-12T22:09:50.378Z,1.27
2023-04-12T22:12:16.711Z,1.10
2023-04-12T22:14:44.743Z,0.90
2023-04-12T22:17:11.614Z,1.35
2023-04-12T22:19:38.330Z,1.67
2023-04-12T22:22:04.708Z,0.90
2023-04-12T22:24:31.054Z,1.65
2023-04-12T22:26:57.509Z,0.95
2023-04-12T22:29:25.049Z,1.08
2023-04-12T22:31:51.396Z,1.50
2023-04-12T22:34:17.759Z,1.38
2023-04-12T22:36:44.217Z,0.98
2023-04-12T22:39:10.710Z,0.82
2023-04-12T22:41:37.032Z,1.23
2023-04-12T22:44:04.186Z,0.88
2023-04-12T22:46:30.665Z,1.08
2023-04-12T22:48:57.431Z,0.90
2023-04-12T22:51:23.848Z,0.80
2023-04-12T22:53:50.143Z,1.40
2023-04-12T22:56:16.673Z,1.17
2023-04-12T22:58:43.071Z,1.02
2023-04-12T23:01:09.534Z,1.15
2023-04-12T23:03:36.439Z,1.33
2023-04-12T23:06:03.035Z,0.95
2023-04-12T23:08:29.666Z,1.30
2023-04-12T23:10:56.516Z,1.52
2023-04-12T23:13:22.816Z,1.33
2023-04-12T23:15:49.238Z,0.88
2023-04-12T23:18:15.558Z,1.38
2023-04-12T23:20:41.999Z,0.88
2023-04-12T23:23:08.359Z,1.10
2023-04-12T23:25:35.125Z,1.67
2023-04-12T23:28:01.534Z,1.17
2023-04-12T23:30:27.938Z,1.50
2023-04-12T23:32:54.363Z,1.30
2023-04-12T23:35:20.818Z,2.72
2023-04-12T23:37:47.177Z,0.85
2023-04-12T23:40:13.834Z,1.15
2023-04-12T23:42:40.363Z,0.70
2023-04-12T23:45:07.612Z,1.00
2023-04-12T23:47:34.044Z,1.15
2023-04-12T23:50:00.503Z,1.17
2023-04-12T23:52:26.848Z,1.00
2023-04-12T23:54:53.244Z,0.80
2023-04-12T23:57:19.537Z,1.67
2023-04-12T23:59:46.052Z,1.10
